planespotterx
Posts: 1259
Joined: Wed Oct 10, 2001 1:34 am

Metar Question

Wed Jan 30, 2002 9:13 pm

hi i am having a few probs with my METAR reports, it goes as follows
EGCC 291820Z 24010KT 9999 FEW025 BKN220 11/05 Q1014 NOSIG

I know most of the report, but can anyone tell me what the 11/05 is for (eg NOSIG is no significant weather etc) just having probs on this one
ill be much appreciated  Smile
Its not the fall that kills u, its the sudden stop at the end..
 
David_itl
Posts: 5961
Joined: Wed Jun 27, 2001 7:39 am

RE: Metar Question

Wed Jan 30, 2002 9:14 pm


Temperature 11C
Dew Point 05C

David/MAN
 
saab2000
Posts: 1216
Joined: Thu Jun 21, 2001 6:19 pm

RE: Metar Question

Wed Jan 30, 2002 9:52 pm

NOSIG does not equal no significant weather. It means no significant changes are expected within the two hours after the time of report. It is a trend report.
smrtrthnu

Who is online

Users browsing this forum: A330NZ, AJCNL, ASFlyer, cougar15, deltal1011man, dk44, hkcanadaexpat, iahcsr, qf789, sjudfwmco, StTim, whitefalcon and 204 guests